sensor_id;sensor_type;location;lat;lon;timestamp;P1;durP1;ratioP1;P2;durP2;ratioP2
14205;SDS011;7186;48.800;9.216;2023-02-24T00:01:13;31.00;;;16.67;;
14205;SDS011;7186;48.800;9.216;2023-02-24T00:03:43;31.40;;;17.67;;
14205;SDS011;7186;48.800;9.216;2023-02-24T00:06:09;60.60;;;21.53;;
14205;SDS011;7186;48.800;9.216;2023-02-24T00:08:39;102.00;;;26.53;;
14205;SDS011;7186;48.800;9.216;2023-02-24T00:11:09;54.70;;;20.60;;
14205;SDS011;7186;48.800;9.216;2023-02-24T00:13:34;31.77;;;18.37;;
14205;SDS011;7186;48.800;9.216;2023-02-24T00:16:00;30.77;;;17.33;;
14205;SDS011;7186;48.800;9.216;2023-02-24T00:18:26;30.77;;;18.60;;
14205;SDS011;7186;48.800;9.216;2023-02-24T00:20:51;31.37;;;19.00;;
14205;SDS011;7186;48.800;9.216;2023-02-24T00:23:20;33.87;;;18.33;;
14205;SDS011;7186;48.800;9.216;2023-02-24T00:25:47;57.27;;;21.53;;
14205;SDS011;7186;48.800;9.216;2023-02-24T00:28:12;33.17;;;19.23;;
14205;SDS011;7186;48.800;9.216;2023-02-24T00:30:38;29.03;;;18.30;;
14205;SDS011;7186;48.800;9.216;2023-02-24T00:33:03;44.93;;;24.37;;
14205;SDS011;7186;48.800;9.216;2023-02-24T00:35:30;32.73;;;18.97;;
14205;SDS011;7186;48.800;9.216;2023-02-24T00:37:56;32.33;;;18.87;;
14205;SDS011;7186;48.800;9.216;2023-02-24T00:40:21;29.83;;;18.90;;
14205;SDS011;7186;48.800;9.216;2023-02-24T00:42:48;29.13;;;18.63;;
14205;SDS011;7186;48.800;9.216;2023-02-24T00:45:13;30.70;;;19.23;;
14205;SDS011;7186;48.800;9.216;2023-02-24T00:47:40;29.80;;;18.20;;
14205;SDS011;7186;48.800;9.216;2023-02-24T00:50:06;32.43;;;18.93;;
14205;SDS011;7186;48.800;9.216;2023-02-24T00:52:32;33.03;;;19.03;;
14205;SDS011;7186;48.800;9.216;2023-02-24T00:54:57;30.70;;;18.60;;
14205;SDS011;7186;48.800;9.216;2023-02-24T00:57:22;29.70;;;17.83;;
14205;SDS011;7186;48.800;9.216;2023-02-24T00:59:48;29.27;;;18.20;;
14205;SDS011;7186;48.800;9.216;2023-02-24T01:02:15;28.53;;;18.37;;
14205;SDS011;7186;48.800;9.216;2023-02-24T01:04:41;28.60;;;18.23;;
14205;SDS011;7186;48.800;9.216;2023-02-24T01:07:08;28.43;;;18.17;;
14205;SDS011;7186;48.800;9.216;2023-02-24T01:09:35;30.93;;;18.40;;
14205;SDS011;7186;48.800;9.216;2023-02-24T01:12:00;35.03;;;18.37;;
14205;SDS011;7186;48.800;9.216;2023-02-24T01:14:46;33.47;;;19.43;;
14205;SDS011;7186;48.800;9.216;2023-02-24T01:17:12;33.70;;;18.43;;
14205;SDS011;7186;48.800;9.216;2023-02-24T01:19:37;32.43;;;19.10;;
14205;SDS011;7186;48.800;9.216;2023-02-24T01:22:04;30.73;;;19.30;;
14205;SDS011;7186;48.800;9.216;2023-02-24T01:24:30;29.47;;;18.53;;
14205;SDS011;7186;48.800;9.216;2023-02-24T01:26:56;49.00;;;19.67;;
14205;SDS011;7186;48.800;9.216;2023-02-24T01:29:21;89.87;;;26.30;;
14205;SDS011;7186;48.800;9.216;2023-02-24T01:31:47;31.47;;;18.70;;
14205;SDS011;7186;48.800;9.216;2023-02-24T01:34:15;32.13;;;18.63;;
14205;SDS011;7186;48.800;9.216;2023-02-24T01:36:41;29.30;;;17.97;;
14205;SDS011;7186;48.800;9.216;2023-02-24T01:39:11;26.60;;;18.10;;
14205;SDS011;7186;48.800;9.216;2023-02-24T01:41:38;28.47;;;18.50;;
14205;SDS011;7186;48.800;9.216;2023-02-24T01:44:56;26.90;;;17.70;;
14205;SDS011;7186;48.800;9.216;2023-02-24T01:46:53;28.87;;;17.70;;
14205;SDS011;7186;48.800;9.216;2023-02-24T01:49:21;27.00;;;16.60;;
14205;SDS011;7186;48.800;9.216;2023-02-24T01:51:57;28.67;;;17.67;;
14205;SDS011;7186;48.800;9.216;2023-02-24T01:54:25;30.20;;;17.57;;
14205;SDS011;7186;48.800;9.216;2023-02-24T01:56:52;24.33;;;16.23;;
14205;SDS011;7186;48.800;9.216;2023-02-24T01:59:18;29.80;;;17.70;;
14205;SDS011;7186;48.800;9.216;2023-02-24T02:01:44;27.17;;;16.97;;
14205;SDS011;7186;48.800;9.216;2023-02-24T02:06:53;27.77;;;16.90;;
14205;SDS011;7186;48.800;9.216;2023-02-24T02:09:19;30.20;;;17.80;;
14205;SDS011;7186;48.800;9.216;2023-02-24T02:11:44;26.50;;;17.17;;
14205;SDS011;7186;48.800;9.216;2023-02-24T02:14:13;27.97;;;17.97;;
14205;SDS011;7186;48.800;9.216;2023-02-24T02:19:25;27.47;;;16.57;;
14205;SDS011;7186;48.800;9.216;2023-02-24T02:27:13;28.57;;;17.93;;
14205;SDS011;7186;48.800;9.216;2023-02-24T02:35:14;29.77;;;17.27;;
14205;SDS011;7186;48.800;9.216;2023-02-24T02:40:12;26.23;;;17.40;;
14205;SDS011;7186;48.800;9.216;2023-02-24T02:45:14;30.57;;;18.17;;
14205;SDS011;7186;48.800;9.216;2023-02-24T02:47:52;29.37;;;18.30;;
14205;SDS011;7186;48.800;9.216;2023-02-24T02:53:03;28.70;;;18.33;;
14205;SDS011;7186;48.800;9.216;2023-02-24T02:55:40;28.67;;;18.50;;
14205;SDS011;7186;48.800;9.216;2023-02-24T02:58:11;32.53;;;18.20;;
14205;SDS011;7186;48.800;9.216;2023-02-24T03:00:43;30.00;;;18.23;;
14205;SDS011;7186;48.800;9.216;2023-02-24T03:03:15;31.20;;;19.03;;
14205;SDS011;7186;48.800;9.216;2023-02-24T03:05:51;30.13;;;18.93;;
14205;SDS011;7186;48.800;9.216;2023-02-24T03:08:21;29.93;;;18.90;;
14205;SDS011;7186;48.800;9.216;2023-02-24T03:10:47;31.53;;;19.30;;
14205;SDS011;7186;48.800;9.216;2023-02-24T03:13:16;32.17;;;19.53;;
14205;SDS011;7186;48.800;9.216;2023-02-24T03:15:42;34.87;;;19.67;;
14205;SDS011;7186;48.800;9.216;2023-02-24T03:18:12;29.97;;;19.53;;
14205;SDS011;7186;48.800;9.216;2023-02-24T03:20:40;28.57;;;19.30;;
14205;SDS011;7186;48.800;9.216;2023-02-24T03:23:10;34.47;;;19.50;;
14205;SDS011;7186;48.800;9.216;2023-02-24T03:25:55;32.00;;;19.50;;
14205;SDS011;7186;48.800;9.216;2023-02-24T03:30:59;33.97;;;20.03;;
14205;SDS011;7186;48.800;9.216;2023-02-24T03:33:29;28.43;;;18.77;;
14205;SDS011;7186;48.800;9.216;2023-02-24T03:35:56;29.87;;;19.30;;
14205;SDS011;7186;48.800;9.216;2023-02-24T03:38:25;31.23;;;19.33;;
14205;SDS011;7186;48.800;9.216;2023-02-24T03:40:51;35.50;;;20.17;;
14205;SDS011;7186;48.800;9.216;2023-02-24T03:43:19;31.43;;;19.43;;
14205;SDS011;7186;48.800;9.216;2023-02-24T03:45:46;32.97;;;19.33;;
14205;SDS011;7186;48.800;9.216;2023-02-24T03:48:12;31.17;;;19.83;;
14205;SDS011;7186;48.800;9.216;2023-02-24T03:50:38;29.80;;;18.13;;
14205;SDS011;7186;48.800;9.216;2023-02-24T03:56:02;31.80;;;18.37;;
14205;SDS011;7186;48.800;9.216;2023-02-24T03:58:52;32.87;;;19.83;;
14205;SDS011;7186;48.800;9.216;2023-02-24T04:01:21;35.00;;;19.80;;
14205;SDS011;7186;48.800;9.216;2023-02-24T04:04:06;32.67;;;19.03;;
14205;SDS011;7186;48.800;9.216;2023-02-24T04:09:26;36.27;;;20.63;;
14205;SDS011;7186;48.800;9.216;2023-02-24T04:14:23;38.77;;;21.47;;
14205;SDS011;7186;48.800;9.216;2023-02-24T04:16:54;34.70;;;21.97;;
14205;SDS011;7186;48.800;9.216;2023-02-24T04:19:21;37.93;;;23.33;;
14205;SDS011;7186;48.800;9.216;2023-02-24T04:21:48;38.47;;;22.30;;
14205;SDS011;7186;48.800;9.216;2023-02-24T04:24:15;38.03;;;22.50;;
14205;SDS011;7186;48.800;9.216;2023-02-24T04:26:44;45.07;;;23.20;;
14205;SDS011;7186;48.800;9.216;2023-02-24T04:29:11;41.10;;;22.90;;
14205;SDS011;7186;48.800;9.216;2023-02-24T04:31:42;35.13;;;22.50;;
14205;SDS011;7186;48.800;9.216;2023-02-24T04:34:08;37.80;;;22.73;;
14205;SDS011;7186;48.800;9.216;2023-02-24T04:36:34;44.50;;;22.67;;
14205;SDS011;7186;48.800;9.216;2023-02-24T04:38:59;42.03;;;23.97;;
14205;SDS011;7186;48.800;9.216;2023-02-24T04:41:24;38.37;;;22.40;;
14205;SDS011;7186;48.800;9.216;2023-02-24T04:43:49;43.80;;;23.27;;
14205;SDS011;7186;48.800;9.216;2023-02-24T04:46:15;39.73;;;22.30;;
14205;SDS011;7186;48.800;9.216;2023-02-24T04:48:40;46.80;;;25.50;;
14205;SDS011;7186;48.800;9.216;2023-02-24T04:51:05;49.60;;;25.10;;
14205;SDS011;7186;48.800;9.216;2023-02-24T04:53:31;46.43;;;25.27;;
14205;SDS011;7186;48.800;9.216;2023-02-24T04:55:56;44.07;;;25.23;;
14205;SDS011;7186;48.800;9.216;2023-02-24T04:58:25;43.20;;;24.10;;
14205;SDS011;7186;48.800;9.216;2023-02-24T05:00:52;44.07;;;24.63;;
14205;SDS011;7186;48.800;9.216;2023-02-24T05:03:18;49.30;;;25.83;;
14205;SDS011;7186;48.800;9.216;2023-02-24T05:05:49;49.87;;;26.33;;
14205;SDS011;7186;48.800;9.216;2023-02-24T05:08:16;50.97;;;25.40;;
14205;SDS011;7186;48.800;9.216;2023-02-24T05:10:42;45.87;;;25.47;;
14205;SDS011;7186;48.800;9.216;2023-02-24T05:13:10;44.67;;;26.20;;
14205;SDS011;7186;48.800;9.216;2023-02-24T05:15:38;52.33;;;26.50;;
14205;SDS011;7186;48.800;9.216;2023-02-24T05:18:04;46.23;;;26.60;;
14205;SDS011;7186;48.800;9.216;2023-02-24T05:20:39;49.40;;;27.07;;
14205;SDS011;7186;48.800;9.216;2023-02-24T05:23:27;45.97;;;25.10;;
14205;SDS011;7186;48.800;9.216;2023-02-24T05:25:55;47.20;;;24.27;;
14205;SDS011;7186;48.800;9.216;2023-02-24T05:28:21;49.63;;;26.20;;
14205;SDS011;7186;48.800;9.216;2023-02-24T05:30:48;46.40;;;24.87;;
14205;SDS011;7186;48.800;9.216;2023-02-24T05:33:13;50.63;;;26.03;;
14205;SDS011;7186;48.800;9.216;2023-02-24T05:35:38;46.50;;;24.70;;
14205;SDS011;7186;48.800;9.216;2023-02-24T05:38:03;50.90;;;24.63;;
14205;SDS011;7186;48.800;9.216;2023-02-24T05:40:32;48.57;;;25.20;;
14205;SDS011;7186;48.800;9.216;2023-02-24T05:42:57;52.67;;;27.83;;
14205;SDS011;7186;48.800;9.216;2023-02-24T05:45:27;52.17;;;27.67;;
14205;SDS011;7186;48.800;9.216;2023-02-24T05:47:54;54.07;;;27.70;;
14205;SDS011;7186;48.800;9.216;2023-02-24T05:50:19;53.97;;;27.43;;
14205;SDS011;7186;48.800;9.216;2023-02-24T05:52:50;52.20;;;27.57;;
14205;SDS011;7186;48.800;9.216;2023-02-24T05:55:15;49.47;;;27.37;;
14205;SDS011;7186;48.800;9.216;2023-02-24T05:57:40;53.40;;;26.90;;
14205;SDS011;7186;48.800;9.216;2023-02-24T06:00:06;53.00;;;27.43;;
14205;SDS011;7186;48.800;9.216;2023-02-24T06:02:41;48.80;;;26.47;;
14205;SDS011;7186;48.800;9.216;2023-02-24T06:05:13;54.50;;;27.27;;
14205;SDS011;7186;48.800;9.216;2023-02-24T06:07:49;52.20;;;26.67;;
14205;SDS011;7186;48.800;9.216;2023-02-24T06:10:15;55.23;;;26.93;;
14205;SDS011;7186;48.800;9.216;2023-02-24T06:12:40;51.57;;;28.27;;
14205;SDS011;7186;48.800;9.216;2023-02-24T06:15:05;55.83;;;27.90;;
14205;SDS011;7186;48.800;9.216;2023-02-24T06:17:31;47.70;;;26.83;;
14205;SDS011;7186;48.800;9.216;2023-02-24T06:19:56;52.90;;;27.20;;
14205;SDS011;7186;48.800;9.216;2023-02-24T06:22:22;48.97;;;26.10;;
14205;SDS011;7186;48.800;9.216;2023-02-24T06:24:48;48.20;;;25.43;;
14205;SDS011;7186;48.800;9.216;2023-02-24T06:27:14;52.10;;;26.77;;
14205;SDS011;7186;48.800;9.216;2023-02-24T06:29:43;46.57;;;25.80;;
14205;SDS011;7186;48.800;9.216;2023-02-24T06:32:09;59.17;;;26.47;;
14205;SDS011;7186;48.800;9.216;2023-02-24T06:34:37;52.67;;;26.63;;
14205;SDS011;7186;48.800;9.216;2023-02-24T06:37:03;49.33;;;26.77;;
14205;SDS011;7186;48.800;9.216;2023-02-24T06:39:29;53.20;;;27.47;;
14205;SDS011;7186;48.800;9.216;2023-02-24T06:41:56;54.67;;;29.13;;
14205;SDS011;7186;48.800;9.216;2023-02-24T06:44:27;56.50;;;27.93;;
14205;SDS011;7186;48.800;9.216;2023-02-24T06:46:53;52.60;;;27.53;;
14205;SDS011;7186;48.800;9.216;2023-02-24T06:49:18;53.57;;;29.10;;
14205;SDS011;7186;48.800;9.216;2023-02-24T06:51:43;63.87;;;29.80;;
14205;SDS011;7186;48.800;9.216;2023-02-24T06:54:08;56.77;;;28.73;;
14205;SDS011;7186;48.800;9.216;2023-02-24T06:56:34;57.77;;;27.90;;
14205;SDS011;7186;48.800;9.216;2023-02-24T06:59:03;55.40;;;27.60;;
14205;SDS011;7186;48.800;9.216;2023-02-24T07:01:30;60.77;;;29.77;;
14205;SDS011;7186;48.800;9.216;2023-02-24T07:03:58;59.67;;;29.40;;
14205;SDS011;7186;48.800;9.216;2023-02-24T07:06:41;61.97;;;28.73;;
14205;SDS011;7186;48.800;9.216;2023-02-24T07:09:09;59.13;;;27.93;;
14205;SDS011;7186;48.800;9.216;2023-02-24T07:11:35;64.63;;;30.37;;
14205;SDS011;7186;48.800;9.216;2023-02-24T07:14:01;57.53;;;29.07;;
14205;SDS011;7186;48.800;9.216;2023-02-24T07:16:29;64.23;;;30.03;;
14205;SDS011;7186;48.800;9.216;2023-02-24T07:18:55;59.10;;;29.90;;
14205;SDS011;7186;48.800;9.216;2023-02-24T07:21:21;64.40;;;28.73;;
14205;SDS011;7186;48.800;9.216;2023-02-24T07:23:47;61.37;;;30.57;;
14205;SDS011;7186;48.800;9.216;2023-02-24T07:26:14;62.20;;;29.37;;
14205;SDS011;7186;48.800;9.216;2023-02-24T07:28:43;63.07;;;30.30;;
14205;SDS011;7186;48.800;9.216;2023-02-24T07:31:10;62.60;;;30.63;;
14205;SDS011;7186;48.800;9.216;2023-02-24T07:33:36;62.80;;;31.17;;
14205;SDS011;7186;48.800;9.216;2023-02-24T07:36:03;67.10;;;30.13;;
14205;SDS011;7186;48.800;9.216;2023-02-24T07:38:33;67.43;;;31.03;;
14205;SDS011;7186;48.800;9.216;2023-02-24T07:40:58;67.13;;;31.50;;
14205;SDS011;7186;48.800;9.216;2023-02-24T07:43:23;63.97;;;30.00;;
14205;SDS011;7186;48.800;9.216;2023-02-24T07:45:50;71.30;;;30.90;;
14205;SDS011;7186;48.800;9.216;2023-02-24T07:48:16;61.37;;;30.57;;
14205;SDS011;7186;48.800;9.216;2023-02-24T07:50:42;67.67;;;30.80;;
14205;SDS011;7186;48.800;9.216;2023-02-24T07:53:07;72.50;;;32.47;;
14205;SDS011;7186;48.800;9.216;2023-02-24T07:55:34;68.80;;;32.27;;
14205;SDS011;7186;48.800;9.216;2023-02-24T07:58:00;78.07;;;32.37;;
14205;SDS011;7186;48.800;9.216;2023-02-24T08:00:29;72.53;;;30.83;;
14205;SDS011;7186;48.800;9.216;2023-02-24T08:02:55;70.87;;;31.23;;
14205;SDS011;7186;48.800;9.216;2023-02-24T08:05:22;71.67;;;32.90;;
14205;SDS011;7186;48.800;9.216;2023-02-24T08:07:48;77.57;;;31.97;;
14205;SDS011;7186;48.800;9.216;2023-02-24T08:10:17;72.40;;;32.23;;
14205;SDS011;7186;48.800;9.216;2023-02-24T08:12:49;74.00;;;31.30;;
14205;SDS011;7186;48.800;9.216;2023-02-24T08:15:18;69.20;;;30.23;;
14205;SDS011;7186;48.800;9.216;2023-02-24T08:17:48;82.40;;;32.67;;
14205;SDS011;7186;48.800;9.216;2023-02-24T08:20:13;70.07;;;31.50;;
14205;SDS011;7186;48.800;9.216;2023-02-24T08:22:39;76.13;;;32.13;;
14205;SDS011;7186;48.800;9.216;2023-02-24T08:25:08;80.00;;;32.73;;
14205;SDS011;7186;48.800;9.216;2023-02-24T08:27:34;78.57;;;32.73;;
14205;SDS011;7186;48.800;9.216;2023-02-24T08:30:05;70.93;;;31.00;;
14205;SDS011;7186;48.800;9.216;2023-02-24T08:32:33;83.23;;;32.73;;
14205;SDS011;7186;48.800;9.216;2023-02-24T08:35:01;73.17;;;31.53;;
14205;SDS011;7186;48.800;9.216;2023-02-24T08:37:28;73.60;;;32.30;;
14205;SDS011;7186;48.800;9.216;2023-02-24T08:39:58;69.70;;;31.90;;
14205;SDS011;7186;48.800;9.216;2023-02-24T08:42:23;70.30;;;32.30;;
14205;SDS011;7186;48.800;9.216;2023-02-24T08:44:55;70.73;;;30.53;;
14205;SDS011;7186;48.800;9.216;2023-02-24T08:47:22;77.17;;;31.90;;
14205;SDS011;7186;48.800;9.216;2023-02-24T08:49:55;70.93;;;31.83;;
14205;SDS011;7186;48.800;9.216;2023-02-24T08:52:20;70.63;;;32.23;;
14205;SDS011;7186;48.800;9.216;2023-02-24T08:54:45;70.17;;;30.27;;
14205;SDS011;7186;48.800;9.216;2023-02-24T08:57:13;68.70;;;31.33;;
14205;SDS011;7186;48.800;9.216;2023-02-24T08:59:40;63.33;;;29.57;;
14205;SDS011;7186;48.800;9.216;2023-02-24T09:02:17;62.37;;;29.97;;
14205;SDS011;7186;48.800;9.216;2023-02-24T09:04:46;67.87;;;31.90;;
14205;SDS011;7186;48.800;9.216;2023-02-24T09:07:12;62.43;;;29.53;;
14205;SDS011;7186;48.800;9.216;2023-02-24T09:09:39;61.20;;;29.80;;
14205;SDS011;7186;48.800;9.216;2023-02-24T09:12:06;70.00;;;29.83;;
14205;SDS011;7186;48.800;9.216;2023-02-24T09:14:32;56.60;;;28.40;;
14205;SDS011;7186;48.800;9.216;2023-02-24T09:17:01;59.63;;;27.83;;
14205;SDS011;7186;48.800;9.216;2023-02-24T09:22:04;63.37;;;30.00;;
14205;SDS011;7186;48.800;9.216;2023-02-24T09:24:38;61.30;;;28.23;;
14205;SDS011;7186;48.800;9.216;2023-02-24T09:27:03;57.47;;;28.43;;
14205;SDS011;7186;48.800;9.216;2023-02-24T09:29:29;55.23;;;26.77;;
14205;SDS011;7186;48.800;9.216;2023-02-24T09:32:01;59.10;;;27.27;;
14205;SDS011;7186;48.800;9.216;2023-02-24T09:34:33;54.97;;;27.90;;
14205;SDS011;7186;48.800;9.216;2023-02-24T09:36:59;49.60;;;25.90;;
14205;SDS011;7186;48.800;9.216;2023-02-24T09:39:28;45.70;;;24.20;;
14205;SDS011;7186;48.800;9.216;2023-02-24T09:41:53;47.50;;;24.17;;
14205;SDS011;7186;48.800;9.216;2023-02-24T09:44:26;48.77;;;24.73;;
14205;SDS011;7186;48.800;9.216;2023-02-24T09:49:55;46.17;;;23.50;;
14205;SDS011;7186;48.800;9.216;2023-02-24T09:52:25;48.47;;;25.50;;
14205;SDS011;7186;48.800;9.216;2023-02-24T09:55:04;50.77;;;23.97;;
14205;SDS011;7186;48.800;9.216;2023-02-24T09:57:49;51.13;;;23.87;;
14205;SDS011;7186;48.800;9.216;2023-02-24T10:00:34;41.23;;;20.80;;
14205;SDS011;7186;48.800;9.216;2023-02-24T10:03:11;44.47;;;20.10;;
14205;SDS011;7186;48.800;9.216;2023-02-24T10:05:57;40.87;;;19.70;;
14205;SDS011;7186;48.800;9.216;2023-02-24T10:08:35;38.93;;;19.70;;
14205;SDS011;7186;48.800;9.216;2023-02-24T10:11:02;37.40;;;19.23;;
14205;SDS011;7186;48.800;9.216;2023-02-24T10:13:31;34.23;;;18.73;;
14205;SDS011;7186;48.800;9.216;2023-02-24T10:15:59;35.60;;;17.27;;
14205;SDS011;7186;48.800;9.216;2023-02-24T10:18:37;37.10;;;17.27;;
14205;SDS011;7186;48.800;9.216;2023-02-24T10:21:15;37.97;;;17.77;;
14205;SDS011;7186;48.800;9.216;2023-02-24T10:26:17;29.43;;;14.63;;
14205;SDS011;7186;48.800;9.216;2023-02-24T10:29:04;31.57;;;15.53;;
14205;SDS011;7186;48.800;9.216;2023-02-24T10:31:45;27.37;;;13.33;;
14205;SDS011;7186;48.800;9.216;2023-02-24T10:34:12;28.23;;;12.73;;
14205;SDS011;7186;48.800;9.216;2023-02-24T10:36:43;23.53;;;12.87;;
14205;SDS011;7186;48.800;9.216;2023-02-24T10:41:49;26.90;;;13.77;;
14205;SDS011;7186;48.800;9.216;2023-02-24T10:44:21;25.30;;;12.80;;
14205;SDS011;7186;48.800;9.216;2023-02-24T10:49:48;29.57;;;14.83;;
14205;SDS011;7186;48.800;9.216;2023-02-24T10:55:08;34.93;;;17.13;;
14205;SDS011;7186;48.800;9.216;2023-02-24T10:58:03;39.73;;;18.47;;
14205;SDS011;7186;48.800;9.216;2023-02-24T11:00:41;43.60;;;20.47;;
14205;SDS011;7186;48.800;9.216;2023-02-24T11:03:38;53.07;;;21.50;;
14205;SDS011;7186;48.800;9.216;2023-02-24T11:06:20;45.10;;;21.87;;
14205;SDS011;7186;48.800;9.216;2023-02-24T11:09:13;46.00;;;19.97;;
14205;SDS011;7186;48.800;9.216;2023-02-24T11:11:48;52.20;;;22.03;;
14205;SDS011;7186;48.800;9.216;2023-02-24T11:15:18;57.43;;;21.50;;
14205;SDS011;7186;48.800;9.216;2023-02-24T11:17:36;45.47;;;22.63;;
14205;SDS011;7186;48.800;9.216;2023-02-24T11:20:16;50.30;;;20.50;;
14205;SDS011;7186;48.800;9.216;2023-02-24T11:22:43;49.90;;;22.07;;
14205;SDS011;7186;48.800;9.216;2023-02-24T11:25:34;52.73;;;22.00;;
14205;SDS011;7186;48.800;9.216;2023-02-24T11:27:58;53.33;;;22.30;;
14205;SDS011;7186;48.800;9.216;2023-02-24T11:30:41;46.03;;;21.63;;
14205;SDS011;7186;48.800;9.216;2023-02-24T11:41:02;48.93;;;21.77;;
14205;SDS011;7186;48.800;9.216;2023-02-24T11:43:29;47.83;;;21.63;;
14205;SDS011;7186;48.800;9.216;2023-02-24T11:46:01;45.10;;;20.00;;
14205;SDS011;7186;48.800;9.216;2023-02-24T11:48:33;45.00;;;20.07;;
14205;SDS011;7186;48.800;9.216;2023-02-24T11:53:36;45.77;;;20.20;;
14205;SDS011;7186;48.800;9.216;2023-02-24T11:56:15;49.30;;;20.13;;
14205;SDS011;7186;48.800;9.216;2023-02-24T12:06:16;54.73;;;21.10;;
14205;SDS011;7186;48.800;9.216;2023-02-24T12:08:44;64.77;;;21.87;;
14205;SDS011;7186;48.800;9.216;2023-02-24T12:11:22;87.37;;;23.00;;
14205;SDS011;7186;48.800;9.216;2023-02-24T12:14:32;48.27;;;20.27;;
14205;SDS011;7186;48.800;9.216;2023-02-24T12:16:40;43.83;;;19.67;;
14205;SDS011;7186;48.800;9.216;2023-02-24T12:19:16;46.57;;;20.57;;
14205;SDS011;7186;48.800;9.216;2023-02-24T12:21:45;44.17;;;19.53;;
14205;SDS011;7186;48.800;9.216;2023-02-24T12:24:13;42.67;;;18.80;;
14205;SDS011;7186;48.800;9.216;2023-02-24T12:26:57;44.70;;;20.43;;
14205;SDS011;7186;48.800;9.216;2023-02-24T12:32:29;49.80;;;19.97;;
14205;SDS011;7186;48.800;9.216;2023-02-24T12:45:31;41.60;;;19.27;;
14205;SDS011;7186;48.800;9.216;2023-02-24T12:51:03;43.13;;;21.27;;
14205;SDS011;7186;48.800;9.216;2023-02-24T12:53:50;42.03;;;18.47;;
14205;SDS011;7186;48.800;9.216;2023-02-24T12:56:22;40.17;;;16.57;;
14205;SDS011;7186;48.800;9.216;2023-02-24T12:58:50;35.10;;;16.13;;
14205;SDS011;7186;48.800;9.216;2023-02-24T13:14:27;26.33;;;12.83;;
14205;SDS011;7186;48.800;9.216;2023-02-24T13:17:01;26.30;;;12.90;;
14205;SDS011;7186;48.800;9.216;2023-02-24T13:21:55;35.20;;;12.57;;
14205;SDS011;7186;48.800;9.216;2023-02-24T13:24:21;22.67;;;12.70;;
14205;SDS011;7186;48.800;9.216;2023-02-24T13:26:47;29.90;;;13.07;;
14205;SDS011;7186;48.800;9.216;2023-02-24T13:29:13;29.53;;;13.10;;
14205;SDS011;7186;48.800;9.216;2023-02-24T13:31:40;26.47;;;11.20;;
14205;SDS011;7186;48.800;9.216;2023-02-24T13:34:13;23.17;;;9.63;;
14205;SDS011;7186;48.800;9.216;2023-02-24T13:36:44;31.40;;;12.23;;
14205;SDS011;7186;48.800;9.216;2023-02-24T13:39:22;31.60;;;14.00;;
14205;SDS011;7186;48.800;9.216;2023-02-24T13:41:47;27.23;;;13.43;;
14205;SDS011;7186;48.800;9.216;2023-02-24T13:51:49;29.80;;;14.37;;
14205;SDS011;7186;48.800;9.216;2023-02-24T14:02:05;37.57;;;18.57;;
14205;SDS011;7186;48.800;9.216;2023-02-24T14:04:35;42.50;;;18.17;;
14205;SDS011;7186;48.800;9.216;2023-02-24T14:07:10;42.53;;;18.77;;
14205;SDS011;7186;48.800;9.216;2023-02-24T14:09:37;41.07;;;18.53;;
14205;SDS011;7186;48.800;9.216;2023-02-24T14:12:07;39.47;;;17.23;;
14205;SDS011;7186;48.800;9.216;2023-02-24T14:14:36;34.83;;;16.33;;
14205;SDS011;7186;48.800;9.216;2023-02-24T14:17:01;31.03;;;16.00;;
14205;SDS011;7186;48.800;9.216;2023-02-24T14:19:26;32.30;;;15.43;;
14205;SDS011;7186;48.800;9.216;2023-02-24T14:21:53;31.70;;;14.20;;
14205;SDS011;7186;48.800;9.216;2023-02-24T14:24:19;35.93;;;14.73;;
14205;SDS011;7186;48.800;9.216;2023-02-24T14:26:46;26.50;;;12.60;;
14205;SDS011;7186;48.800;9.216;2023-02-24T14:29:13;31.10;;;14.30;;
14205;SDS011;7186;48.800;9.216;2023-02-24T14:31:40;26.83;;;12.30;;
14205;SDS011;7186;48.800;9.216;2023-02-24T14:34:11;26.77;;;12.43;;
14205;SDS011;7186;48.800;9.216;2023-02-24T14:36:41;25.20;;;12.00;;
14205;SDS011;7186;48.800;9.216;2023-02-24T14:39:15;25.03;;;11.23;;
14205;SDS011;7186;48.800;9.216;2023-02-24T14:41:40;25.97;;;12.83;;
14205;SDS011;7186;48.800;9.216;2023-02-24T14:47:01;29.93;;;13.20;;
14205;SDS011;7186;48.800;9.216;2023-02-24T14:49:28;29.53;;;13.10;;
14205;SDS011;7186;48.800;9.216;2023-02-24T14:54:29;28.53;;;12.87;;
14205;SDS011;7186;48.800;9.216;2023-02-24T14:56:57;28.60;;;12.43;;
14205;SDS011;7186;48.800;9.216;2023-02-24T14:59:27;30.00;;;12.73;;
14205;SDS011;7186;48.800;9.216;2023-02-24T15:01:53;26.33;;;12.87;;
14205;SDS011;7186;48.800;9.216;2023-02-24T15:04:33;26.53;;;13.70;;
14205;SDS011;7186;48.800;9.216;2023-02-24T15:07:03;26.93;;;12.83;;
14205;SDS011;7186;48.800;9.216;2023-02-24T15:09:32;27.20;;;13.47;;
14205;SDS011;7186;48.800;9.216;2023-02-24T15:11:58;29.03;;;12.80;;
14205;SDS011;7186;48.800;9.216;2023-02-24T15:14:30;31.50;;;13.70;;
14205;SDS011;7186;48.800;9.216;2023-02-24T15:17:00;28.07;;;12.17;;
14205;SDS011;7186;48.800;9.216;2023-02-24T15:19:30;27.13;;;12.80;;
14205;SDS011;7186;48.800;9.216;2023-02-24T15:21:55;28.30;;;13.03;;
14205;SDS011;7186;48.800;9.216;2023-02-24T15:24:25;23.90;;;12.27;;
14205;SDS011;7186;48.800;9.216;2023-02-24T15:26:51;23.60;;;11.83;;
14205;SDS011;7186;48.800;9.216;2023-02-24T15:29:21;26.50;;;11.93;;
14205;SDS011;7186;48.800;9.216;2023-02-24T15:31:49;21.13;;;11.00;;
14205;SDS011;7186;48.800;9.216;2023-02-24T15:34:26;26.73;;;12.00;;
14205;SDS011;7186;48.800;9.216;2023-02-24T15:36:55;20.97;;;11.43;;
14205;SDS011;7186;48.800;9.216;2023-02-24T15:39:23;22.83;;;11.43;;
14205;SDS011;7186;48.800;9.216;2023-02-24T15:41:50;23.33;;;11.50;;
14205;SDS011;7186;48.800;9.216;2023-02-24T15:44:34;20.70;;;10.80;;
14205;SDS011;7186;48.800;9.216;2023-02-24T15:47:11;24.10;;;10.33;;
14205;SDS011;7186;48.800;9.216;2023-02-24T15:49:36;21.83;;;10.50;;
14205;SDS011;7186;48.800;9.216;2023-02-24T15:52:01;20.83;;;10.33;;
14205;SDS011;7186;48.800;9.216;2023-02-24T15:54:29;21.47;;;10.73;;
14205;SDS011;7186;48.800;9.216;2023-02-24T15:56:56;24.87;;;10.60;;
14205;SDS011;7186;48.800;9.216;2023-02-24T15:59:22;20.53;;;10.20;;
14205;SDS011;7186;48.800;9.216;2023-02-24T16:01:47;17.50;;;10.37;;
14205;SDS011;7186;48.800;9.216;2023-02-24T16:04:13;20.43;;;10.43;;
14205;SDS011;7186;48.800;9.216;2023-02-24T16:06:38;22.03;;;11.80;;
14205;SDS011;7186;48.800;9.216;2023-02-24T16:09:10;23.73;;;10.37;;
14205;SDS011;7186;48.800;9.216;2023-02-24T16:11:37;20.80;;;10.77;;
14205;SDS011;7186;48.800;9.216;2023-02-24T16:14:03;19.70;;;10.53;;
14205;SDS011;7186;48.800;9.216;2023-02-24T16:16:28;21.70;;;9.87;;
14205;SDS011;7186;48.800;9.216;2023-02-24T16:18:53;23.50;;;10.87;;
14205;SDS011;7186;48.800;9.216;2023-02-24T16:21:19;20.07;;;10.03;;
14205;SDS011;7186;48.800;9.216;2023-02-24T16:23:44;20.50;;;10.57;;
14205;SDS011;7186;48.800;9.216;2023-02-24T16:26:12;20.83;;;10.43;;
14205;SDS011;7186;48.800;9.216;2023-02-24T16:28:40;22.13;;;11.13;;
14205;SDS011;7186;48.800;9.216;2023-02-24T16:31:06;21.20;;;11.23;;
14205;SDS011;7186;48.800;9.216;2023-02-24T16:33:32;21.33;;;10.47;;
14205;SDS011;7186;48.800;9.216;2023-02-24T16:35:59;22.47;;;10.83;;
14205;SDS011;7186;48.800;9.216;2023-02-24T16:38:24;25.67;;;9.83;;
14205;SDS011;7186;48.800;9.216;2023-02-24T16:40:50;19.17;;;9.87;;
14205;SDS011;7186;48.800;9.216;2023-02-24T16:43:16;20.80;;;11.20;;
14205;SDS011;7186;48.800;9.216;2023-02-24T16:45:41;19.07;;;10.80;;
14205;SDS011;7186;48.800;9.216;2023-02-24T16:48:08;20.57;;;9.73;;
14205;SDS011;7186;48.800;9.216;2023-02-24T16:50:35;21.73;;;10.20;;